aviador You're here:

SBCZ Decoded Metar

CRUIZIRO DO SUL in BRAZIL
Report Time2018-07-20 15:00:00
UTC Time2018-07-20 16:42:26
Flight Rules Old
Wind340° at 02 kt
W.Decomp.*RWY 28: 0.9 kt HW 1.8 kt RCW
W.Rank340° ranks 16
Current wind is below 340° avg. (3.1)
Visibility9999 m
Phenomena:N/A
Clouds:Few 015 Hf
Broken 100 Hf
Expected CloudBase > 2,400 ft AGL from Temp-Dew spread
Ceiling10,000 ft
Temp29°C (ISA +15)
Dew Point23°C (70% RH)
Heat Index32.7°C
QNH1014 hPa
Density Alt2,631 ft
Elevation558 ft
Report Wrong Elevation
Raw Report
METAR SBCZ 201500Z 34002KT 9999 FEW015 BKN100 29/23 Q1014=

Extra information for SBCZ:More info

Metar Taf Metar & Taf Last 4 Metars F.Rules Stats Wind Profile Meteogram Temp Stats Airport Information Weather charts Add Link Nearby VenuesMetar ALERT Operation Metar Decoded Social comments